Northwest Alabama Regional Airport
KMSL : rendu visible

Aérodrome :











RETROUVEZ-NOUS SUR...

 
LOGIN :

S'inscrire | Disclaimer

   EN    FR    IT 

 









Légende :    VFR   VFR Marginal   IFR   IFR Intensif   IFR Très Intensif
Visi : 
Plafond : 
>= 8 km
>= 3000ft
5 à 8 km
1000 à 3000 ft
1500m à 5 km
500 à 1000 ft
800 à 1500m
200 à 500 ft
< 800m
< 200 ft
Symboles :   Orages  Brouillard  Fortes neiges  Fortes précipitations  Vent > 20 kt






- Altitude de l'aérodrome : 551 ft
- Code IATA : MSL


KMSL - Northwest Alabama Regional

DERNIER METAR :
  • 260453Z AUTO 00000KT 10SM CLR 01/M01 A3013 RMK AO2 SLP205 T00111006 $

METARs EXPIRÉS :
  • 260353Z AUTO 00000KT 10SM CLR 01/M01 A3014 RMK AO2 SLP207 T00111006 $
  • 260253Z AUTO 00000KT 10SM CLR 02/00 A3014 RMK AO2 SLP207 T00170000 51003 $

TAF KMSL
Valide du 26 à 06h jusqu'au 27 à 06h UTC


260520Z 2606/2706 28007KT P6SM SCT110 SCT250
FM261300 VRB04KT P6SM BKN090
FM262100 VRB04KT P6SM OVC050
PROB30 2622/2624 -RA OVC035
FM270100 VRB03KT P6SM -RA OVC026
FM270300 VRB03KT 5SM -RA BR OVC011



MET'MAP, la Météo Aéronautique d'un coup d'oeil ! - Copyright ORBIFLY Décembre 2007 - Disclaimer

ORBIFLY MET'MAP TEAM :

Programmation & Développement : Alexandra Zaïnal
Sur une idée originale de : Baudouin d'Aumeries
Assistance à la programmation : Marc-Olivier Méhu
Soutien technique & logistique : Manuel Goepfert

Contact : metmap@orbifly.com




SOURCES & CREDITS :

   NOAA       Earth
Advisory